65AR weather

Bernard Manor Airport
Earle, Arkansas, United States

Public forecast

Using degrees Fahrenheit for public forecast. Weather courtesy of forecast.io.

Closest aviation weather report (METAR) to Bernard Manor Airport

Closest report is West Memphis Municipal Airport, 12.6 nm (23.3 km) ESE. Retrieved 2019/10/21 00:53 UTC (20 minutes ago):

KAWM 210053Z AUTO 14008KT 10SM CLR 22/18 A2979 RMK AO2 SLP085 T02170178

Closest aviation forecast (TAF) to Bernard Manor Airport

Closest forecast is Memphis International Airport, 26.4 nm (48.9 km) ESE. Retrieved 2019-10-21 00:30 UTC (43 minutes ago):

TAF KMEM 202328Z 2100/2206 11009KT P6SM BKN050 FM210600 17008KT P6SM VCSH OVC050 WS020/22045KT FM211200 19011G20KT 4SM TSRA BKN025CB OVC050 TEMPO 2113/2116 1SM TSRA FM211900 24014G22KT P6SM VCSH SCT007 OVC015 FM212200 29012G20KT P6SM OVC040 FM220000 26006KT P6SM FEW050